createdAt,value
2019-02-16T00:03:22.536Z,50.71
2019-02-16T00:08:24.889Z,50.66
2019-02-16T00:13:29.487Z,50.74
2019-02-16T00:18:33.731Z,50.87
2019-02-16T00:23:36.051Z,50.89
2019-02-16T00:28:39.564Z,50.86
2019-02-16T00:33:43.272Z,50.94
2019-02-16T00:38:45.444Z,50.95
2019-02-16T00:43:48.920Z,50.96
2019-02-16T00:48:53.017Z,50.83
2019-02-16T00:53:56.502Z,50.77
2019-02-16T00:58:58.678Z,50.74
2019-02-16T01:04:00.935Z,50.63
2019-02-16T01:09:04.724Z,50.71
2019-02-16T01:14:06.991Z,50.51
2019-02-16T01:19:09.200Z,50.47
2019-02-16T01:24:11.505Z,50.54
2019-02-16T01:29:13.860Z,50.43
2019-02-16T01:34:16.084Z,50.54
2019-02-16T01:39:20.596Z,50.46
2019-02-16T01:44:22.850Z,50.54
2019-02-16T01:49:25.073Z,50.56
2019-02-16T01:54:27.296Z,50.63
2019-02-16T01:59:29.546Z,50.68
2019-02-16T02:04:31.756Z,50.66
2019-02-16T02:09:34.058Z,50.73
2019-02-16T02:14:36.419Z,50.59
2019-02-16T02:19:38.677Z,50.63
2019-02-16T02:24:42.741Z,50.61
2019-02-16T02:29:44.913Z,50.84
2019-02-16T02:34:48.299Z,50.71
2019-02-16T02:39:52.421Z,50.72
2019-02-16T02:44:54.621Z,50.53
2019-02-16T02:49:56.899Z,50.41
2019-02-16T02:54:59.098Z,50.34
2019-02-16T03:00:01.421Z,50.57
2019-02-16T03:05:04.706Z,50.51
2019-02-16T03:10:08.163Z,50.62
2019-02-16T03:15:14.546Z,50.52
2019-02-16T03:20:16.756Z,50.41
2019-02-16T03:25:19.013Z,50.39
2019-02-16T03:30:40.288Z,50.51
2019-02-16T03:36:30.637Z,50.47
2019-02-16T03:41:32.946Z,50.56
2019-02-16T03:46:35.289Z,50.50
2019-02-16T03:51:39.356Z,50.68
2019-02-16T03:56:41.652Z,50.60
2019-02-16T04:01:43.977Z,50.61
2019-02-16T04:06:46.344Z,50.50
2019-02-16T04:11:48.601Z,50.46
2019-02-16T04:16:50.935Z,50.42
2019-02-16T04:21:53.251Z,50.48
2019-02-16T04:26:55.589Z,50.66
2019-02-16T04:31:57.770Z,50.86
2019-02-16T04:36:59.946Z,50.88
2019-02-16T04:42:02.116Z,51.08
2019-02-16T04:47:04.425Z,51.04
2019-02-16T04:52:06.723Z,51.03
2019-02-16T04:57:10.022Z,50.98
2019-02-16T05:02:12.233Z,51.09
2019-02-16T05:07:14.460Z,50.93
2019-02-16T05:12:16.719Z,51.00
2019-02-16T05:17:18.981Z,50.98
2019-02-16T05:22:21.247Z,50.97
2019-02-16T05:27:23.570Z,50.84
2019-02-16T05:32:25.903Z,50.69
2019-02-16T05:37:30.598Z,50.60
2019-02-16T05:42:33.030Z,50.76
2019-02-16T05:47:37.105Z,50.79
2019-02-16T05:52:39.338Z,50.75
2019-02-16T05:57:44.283Z,51.00
2019-02-16T06:02:48.518Z,50.99
2019-02-16T06:07:50.834Z,51.02
2019-02-16T06:12:54.265Z,50.94
2019-02-16T06:17:56.870Z,50.95
2019-02-16T06:23:04.410Z,51.02
2019-02-16T06:28:04.897Z,51.23
2019-02-16T06:33:08.958Z,51.17
2019-02-16T06:38:12.481Z,51.27
2019-02-16T06:43:14.557Z,51.30
2019-02-16T06:48:22.319Z,51.27
2019-02-16T06:53:24.581Z,51.32
2019-02-16T06:58:29.177Z,51.38
2019-02-16T07:03:31.396Z,51.39
2019-02-16T07:08:33.654Z,51.51
2019-02-16T07:13:38.791Z,51.29
2019-02-16T07:18:48.212Z,51.22
2019-02-16T07:23:52.236Z,51.16
2019-02-16T07:28:54.460Z,51.06
2019-02-16T07:33:57.070Z,51.20
2019-02-16T07:39:01.769Z,50.88
2019-02-16T07:44:30.170Z,50.79
2019-02-16T07:49:42.290Z,50.54
2019-02-16T07:54:53.509Z,50.41
2019-02-16T08:00:12.474Z,49.88
2019-02-16T08:05:30.957Z,48.74
2019-02-16T08:10:52.992Z,47.41
2019-02-16T08:16:32.792Z,46.24
2019-02-16T08:21:39.881Z,45.24
2019-02-16T08:27:01.751Z,44.45
2019-02-16T08:32:29.124Z,43.78
2019-02-16T08:37:52.436Z,43.12
2019-02-16T08:43:15.400Z,42.48
2019-02-16T08:48:40.129Z,42.08
2019-02-16T08:54:09.350Z,41.34
2019-02-16T08:59:34.188Z,40.47
2019-02-16T09:04:49.230Z,39.53
2019-02-16T09:10:09.953Z,39.32
2019-02-16T09:15:31.911Z,38.42
2019-02-16T09:20:52.544Z,38.38
2019-02-16T09:26:20.511Z,37.73
2019-02-16T09:31:40.682Z,37.38
2019-02-16T09:37:00.136Z,36.72
2019-02-16T09:42:17.182Z,36.10
2019-02-16T09:47:37.659Z,35.79
2019-02-16T09:52:58.152Z,35.94
2019-02-16T09:58:16.977Z,34.93
2019-02-16T10:03:38.868Z,34.66
2019-02-16T10:08:58.991Z,34.50
2019-02-16T10:14:16.281Z,34.54
2019-02-16T10:19:45.002Z,34.52
2019-02-16T10:25:11.833Z,34.21
2019-02-16T10:30:34.956Z,33.71
2019-02-16T10:35:48.937Z,33.07
2019-02-16T10:41:13.662Z,32.79
2019-02-16T10:46:34.050Z,32.91
2019-02-16T10:52:01.372Z,32.42
2019-02-16T10:57:23.250Z,32.50
2019-02-16T11:02:43.926Z,33.12
2019-02-16T11:07:52.668Z,32.38
2019-02-16T11:13:31.595Z,32.44
2019-02-16T11:18:48.805Z,32.79
2019-02-16T11:24:21.593Z,32.73
2019-02-16T11:29:43.351Z,32.67
2019-02-16T11:35:10.917Z,32.42
2019-02-16T11:40:29.334Z,32.04
2019-02-16T11:45:42.711Z,31.82
2019-02-16T11:50:54.059Z,31.67
2019-02-16T11:56:18.921Z,31.32
2019-02-16T12:01:30.252Z,31.46
2019-02-16T12:06:42.164Z,31.19
2019-02-16T12:11:54.505Z,30.90
2019-02-16T12:17:16.290Z,30.72
2019-02-16T12:22:44.251Z,30.62
2019-02-16T12:28:12.653Z,30.68
2019-02-16T12:33:26.298Z,30.10
2019-02-16T12:38:54.339Z,30.26
2019-02-16T12:44:16.187Z,30.41
2019-02-16T12:49:38.100Z,30.35
2019-02-16T12:54:54.261Z,30.36
2019-02-16T13:00:05.658Z,30.50
2019-02-16T13:05:25.970Z,30.33
2019-02-16T13:10:46.813Z,30.19
2019-02-16T13:16:16.879Z,30.28
2019-02-16T13:21:38.673Z,30.69
2019-02-16T13:26:51.021Z,30.39
2019-02-16T13:32:27.771Z,30.24
2019-02-16T13:37:41.434Z,29.71
2019-02-16T13:43:06.292Z,29.79
2019-02-16T13:48:22.963Z,29.32
2019-02-16T13:53:41.915Z,29.11
2019-02-16T13:59:09.592Z,29.45
2019-02-16T14:04:37.911Z,29.44
2019-02-16T14:09:49.895Z,29.21
2019-02-16T14:15:00.750Z,29.56
2019-02-16T14:20:03.096Z,28.75
2019-02-16T14:25:10.400Z,28.85
2019-02-16T14:30:13.554Z,29.31
2019-02-16T14:35:16.855Z,29.19
2019-02-16T14:40:20.965Z,29.00
2019-02-16T14:45:25.204Z,28.93
2019-02-16T14:50:29.046Z,28.96
2019-02-16T14:55:36.301Z,29.08
2019-02-16T15:00:42.057Z,29.15
2019-02-16T15:05:50.375Z,29.12
2019-02-16T15:10:53.723Z,29.21
2019-02-16T15:16:00.270Z,29.24
2019-02-16T15:21:02.835Z,29.97
2019-02-16T15:26:06.224Z,30.13
2019-02-16T15:31:08.489Z,30.65
2019-02-16T15:36:10.805Z,30.78
2019-02-16T15:41:12.931Z,30.96
2019-02-16T15:46:16.944Z,31.24
2019-02-16T15:51:19.237Z,31.51
2019-02-16T15:56:21.792Z,31.78
2019-02-16T16:01:24.195Z,32.42
2019-02-16T16:06:26.525Z,32.69
2019-02-16T16:11:40.629Z,33.08
2019-02-16T16:17:06.784Z,33.49
2019-02-16T16:22:28.680Z,34.12
2019-02-16T16:28:00.450Z,34.53
2019-02-16T16:33:10.451Z,34.88
2019-02-16T16:38:47.277Z,35.19
2019-02-16T16:44:12.850Z,35.57
2019-02-16T16:49:36.884Z,35.93
2019-02-16T16:54:59.178Z,36.30
2019-02-16T17:00:09.001Z,36.59
2019-02-16T17:05:49.144Z,36.87
2019-02-16T17:11:12.835Z,37.28
2019-02-16T17:16:22.524Z,37.60
2019-02-16T17:21:36.348Z,38.00
2019-02-16T17:26:46.845Z,38.31
2019-02-16T17:31:59.292Z,38.68
2019-02-16T17:37:21.157Z,39.23
2019-02-16T17:43:01.047Z,39.37
2019-02-16T17:48:25.896Z,39.57
2019-02-16T17:53:46.300Z,39.78
2019-02-16T17:59:08.095Z,40.09
2019-02-16T18:04:25.203Z,40.49
2019-02-16T18:09:44.982Z,40.75
2019-02-16T18:15:15.806Z,40.98
2019-02-16T18:20:40.530Z,41.25
2019-02-16T18:25:55.924Z,41.50
2019-02-16T18:31:16.812Z,41.70
2019-02-16T18:36:37.114Z,42.01
2019-02-16T18:41:48.760Z,42.51
2019-02-16T18:47:09.578Z,43.00
2019-02-16T18:52:49.659Z,43.01
2019-02-16T18:58:12.480Z,42.81
2019-02-16T19:03:49.917Z,42.63
2019-02-16T19:09:14.916Z,42.63
2019-02-16T19:14:55.058Z,42.69
2019-02-16T19:20:29.283Z,42.93
2019-02-16T19:25:50.000Z,43.13
2019-02-16T19:31:11.901Z,43.16
2019-02-16T19:36:27.949Z,43.30
2019-02-16T19:41:49.066Z,43.39
2019-02-16T19:47:09.888Z,43.47
2019-02-16T19:52:22.417Z,43.32
2019-02-16T19:57:46.237Z,43.18
2019-02-16T20:03:01.458Z,43.08
2019-02-16T20:08:38.420Z,42.97
2019-02-16T20:14:02.887Z,42.83
2019-02-16T20:19:30.765Z,42.62
2019-02-16T20:24:55.987Z,42.47
2019-02-16T20:30:15.732Z,42.52
2019-02-16T20:35:43.339Z,42.50
2019-02-16T20:41:17.135Z,42.36
2019-02-16T20:46:30.108Z,42.49
2019-02-16T20:51:58.923Z,42.55
2019-02-16T20:57:47.634Z,42.57
2019-02-16T21:03:20.497Z,42.82
2019-02-16T21:08:57.552Z,42.83
2019-02-16T21:14:35.925Z,42.74
2019-02-16T21:19:59.525Z,42.77
2019-02-16T21:25:27.259Z,42.75
2019-02-16T21:31:07.994Z,42.72
2019-02-16T21:36:31.811Z,42.96
2019-02-16T21:41:46.574Z,43.20
2019-02-16T21:47:24.126Z,43.46
2019-02-16T21:52:49.561Z,43.47
2019-02-16T21:58:20.225Z,43.62
2019-02-16T22:03:49.890Z,43.71
2019-02-16T22:09:10.281Z,43.90
2019-02-16T22:14:14.442Z,44.02
2019-02-16T22:19:16.769Z,44.08
2019-02-16T22:24:18.991Z,44.23
2019-02-16T22:29:21.292Z,44.12
2019-02-16T22:34:23.746Z,44.38
2019-02-16T22:39:29.024Z,44.42
2019-02-16T22:44:33.339Z,44.49
2019-02-16T22:49:35.645Z,44.70
2019-02-16T22:54:37.962Z,45.09
2019-02-16T22:59:40.307Z,45.22
2019-02-16T23:04:42.609Z,45.35
2019-02-16T23:09:45.061Z,45.46
2019-02-16T23:14:47.409Z,45.62
2019-02-16T23:19:49.661Z,45.96
2019-02-16T23:24:51.972Z,45.99
2019-02-16T23:29:58.760Z,45.98
2019-02-16T23:35:01.265Z,45.81
2019-02-16T23:40:04.074Z,46.24
2019-02-16T23:45:07.996Z,46.45
2019-02-16T23:50:12.094Z,46.84
2019-02-16T23:55:14.332Z,47.02
